sensor_id;sensor_type;location;lat;lon;timestamp;pressure;altitude;pressure_sealevel;temperature;humidity
67840;BME280;54636;51.684;5.142;2023-02-04T00:00:23;103363.81;;;7.18;100.00
67840;BME280;54636;51.684;5.142;2023-02-04T00:02:49;103356.44;;;7.22;100.00
67840;BME280;54636;51.684;5.142;2023-02-04T00:05:18;103352.63;;;7.16;100.00
67840;BME280;54636;51.684;5.142;2023-02-04T00:07:44;103358.41;;;7.18;100.00
67840;BME280;54636;51.684;5.142;2023-02-04T00:10:09;103368.06;;;7.19;100.00
67840;BME280;54636;51.684;5.142;2023-02-04T00:12:35;103362.28;;;7.17;100.00
67840;BME280;54636;51.684;5.142;2023-02-04T00:15:00;103353.00;;;7.18;100.00
67840;BME280;54636;51.684;5.142;2023-02-04T00:17:26;103368.44;;;7.17;100.00
67840;BME280;54636;51.684;5.142;2023-02-04T00:19:51;103354.97;;;7.14;100.00
67840;BME280;54636;51.684;5.142;2023-02-04T00:22:17;103355.38;;;7.12;100.00
67840;BME280;54636;51.684;5.142;2023-02-04T00:24:42;103357.69;;;7.14;100.00
67840;BME280;54636;51.684;5.142;2023-02-04T00:27:12;103364.25;;;7.13;100.00
67840;BME280;54636;51.684;5.142;2023-02-04T00:29:38;103348.09;;;7.02;100.00
67840;BME280;54636;51.684;5.142;2023-02-04T00:32:03;103360.03;;;7.05;100.00
67840;BME280;54636;51.684;5.142;2023-02-04T00:34:29;103368.91;;;7.09;100.00
67840;BME280;54636;51.684;5.142;2023-02-04T00:36:54;103359.28;;;7.04;100.00
67840;BME280;54636;51.684;5.142;2023-02-04T00:39:19;103366.97;;;7.09;100.00
67840;BME280;54636;51.684;5.142;2023-02-04T00:41:45;103363.88;;;7.07;100.00
67840;BME280;54636;51.684;5.142;2023-02-04T00:44:10;103361.97;;;7.04;100.00
67840;BME280;54636;51.684;5.142;2023-02-04T00:46:38;103365.88;;;6.96;100.00
67840;BME280;54636;51.684;5.142;2023-02-04T00:49:03;103369.72;;;6.95;100.00
67840;BME280;54636;51.684;5.142;2023-02-04T00:51:30;103367.03;;;6.91;100.00
67840;BME280;54636;51.684;5.142;2023-02-04T00:53:56;103368.97;;;6.91;100.00
67840;BME280;54636;51.684;5.142;2023-02-04T00:56:21;103364.34;;;6.91;100.00
67840;BME280;54636;51.684;5.142;2023-02-04T00:58:46;103368.19;;;6.90;100.00
67840;BME280;54636;51.684;5.142;2023-02-04T01:01:12;103370.13;;;6.93;100.00
67840;BME280;54636;51.684;5.142;2023-02-04T01:03:37;103376.25;;;7.01;100.00
67840;BME280;54636;51.684;5.142;2023-02-04T01:06:02;103375.88;;;6.99;100.00
67840;BME280;54636;51.684;5.142;2023-02-04T01:08:28;103377.44;;;7.00;100.00
67840;BME280;54636;51.684;5.142;2023-02-04T01:10:53;103376.31;;;6.90;100.00
67840;BME280;54636;51.684;5.142;2023-02-04T01:13:18;103380.19;;;6.86;100.00
67840;BME280;54636;51.684;5.142;2023-02-04T01:15:44;103382.50;;;6.84;100.00
67840;BME280;54636;51.684;5.142;2023-02-04T01:18:11;103393.69;;;6.86;100.00
67840;BME280;54636;51.684;5.142;2023-02-04T01:20:36;103386.38;;;6.83;100.00
67840;BME280;54636;51.684;5.142;2023-02-04T01:23:02;103392.16;;;6.85;100.00
67840;BME280;54636;51.684;5.142;2023-02-04T01:25:27;103397.94;;;6.83;100.00
67840;BME280;54636;51.684;5.142;2023-02-04T01:27:52;103398.34;;;6.82;100.00
67840;BME280;54636;51.684;5.142;2023-02-04T01:30:18;103395.66;;;6.75;100.00
67840;BME280;54636;51.684;5.142;2023-02-04T01:32:43;103395.25;;;6.76;100.00
67840;BME280;54636;51.684;5.142;2023-02-04T01:35:09;103396.81;;;6.74;100.00
67840;BME280;54636;51.684;5.142;2023-02-04T01:37:34;103408.78;;;6.73;100.00
67840;BME280;54636;51.684;5.142;2023-02-04T01:40:00;103406.88;;;6.66;100.00
67840;BME280;54636;51.684;5.142;2023-02-04T01:42:25;103401.88;;;6.57;100.00
67840;BME280;54636;51.684;5.142;2023-02-04T01:44:51;103404.94;;;6.56;100.00
67840;BME280;54636;51.684;5.142;2023-02-04T01:47:17;103406.53;;;6.50;100.00
67840;BME280;54636;51.684;5.142;2023-02-04T01:49:44;103404.22;;;6.45;100.00
67840;BME280;54636;51.684;5.142;2023-02-04T01:52:11;103391.13;;;6.25;100.00
67840;BME280;54636;51.684;5.142;2023-02-04T01:54:37;103415.03;;;6.34;100.00
67840;BME280;54636;51.684;5.142;2023-02-04T01:57:03;103417.75;;;6.31;100.00
67840;BME280;54636;51.684;5.142;2023-02-04T01:59:30;103428.53;;;6.27;100.00
67840;BME280;54636;51.684;5.142;2023-02-04T02:01:55;103427.38;;;6.21;100.00
67840;BME280;54636;51.684;5.142;2023-02-04T02:04:29;103418.50;;;6.13;100.00
67840;BME280;54636;51.684;5.142;2023-02-04T02:06:57;103421.59;;;6.12;100.00
67840;BME280;54636;51.684;5.142;2023-02-04T02:09:24;103424.66;;;6.03;100.00
67840;BME280;54636;51.684;5.142;2023-02-04T02:11:50;103422.34;;;6.02;100.00
67840;BME280;54636;51.684;5.142;2023-02-04T02:14:16;103424.66;;;6.00;100.00
67840;BME280;54636;51.684;5.142;2023-02-04T02:16:41;103405.75;;;5.85;100.00
67840;BME280;54636;51.684;5.142;2023-02-04T02:19:09;103421.16;;;5.88;100.00
67840;BME280;54636;51.684;5.142;2023-02-04T02:22:01;103427.72;;;5.84;100.00
67840;BME280;54636;51.684;5.142;2023-02-04T02:24:31;103427.34;;;5.82;100.00
67840;BME280;54636;51.684;5.142;2023-02-04T02:26:59;103421.56;;;5.80;100.00
67840;BME280;54636;51.684;5.142;2023-02-04T02:29:26;103414.59;;;5.72;100.00
67840;BME280;54636;51.684;5.142;2023-02-04T02:31:53;103427.69;;;5.70;100.00
67840;BME280;54636;51.684;5.142;2023-02-04T02:34:21;103430.38;;;5.66;100.00
67840;BME280;54636;51.684;5.142;2023-02-04T02:36:47;103428.06;;;5.61;100.00
67840;BME280;54636;51.684;5.142;2023-02-04T02:39:13;103427.28;;;5.53;100.00
67840;BME280;54636;51.684;5.142;2023-02-04T02:41:38;103438.06;;;5.53;100.00
67840;BME280;54636;51.684;5.142;2023-02-04T02:44:04;103435.34;;;5.50;100.00
67840;BME280;54636;51.684;5.142;2023-02-04T02:46:29;103431.50;;;5.51;100.00
67840;BME280;54636;51.684;5.142;2023-02-04T02:48:55;103433.03;;;5.48;100.00
67840;BME280;54636;51.684;5.142;2023-02-04T02:51:20;103434.56;;;5.49;100.00
67840;BME280;54636;51.684;5.142;2023-02-04T02:53:49;103443.84;;;5.52;100.00
67840;BME280;54636;51.684;5.142;2023-02-04T02:56:16;103442.66;;;5.49;100.00
67840;BME280;54636;51.684;5.142;2023-02-04T02:58:41;103451.16;;;5.51;100.00
67840;BME280;54636;51.684;5.142;2023-02-04T03:01:08;103444.56;;;5.45;100.00
67840;BME280;54636;51.684;5.142;2023-02-04T03:03:37;103447.63;;;5.40;100.00
67840;BME280;54636;51.684;5.142;2023-02-04T03:06:08;103434.50;;;5.28;100.00
67840;BME280;54636;51.684;5.142;2023-02-04T03:08:35;103450.69;;;5.32;100.00
67840;BME280;54636;51.684;5.142;2023-02-04T03:11:00;103444.88;;;5.22;100.00
67840;BME280;54636;51.684;5.142;2023-02-04T03:13:26;103446.41;;;5.23;100.00
67840;BME280;54636;51.684;5.142;2023-02-04T03:15:51;103448.72;;;5.18;100.00
67840;BME280;54636;51.684;5.142;2023-02-04T03:18:18;103452.94;;;5.15;100.00
67840;BME280;54636;51.684;5.142;2023-02-04T03:20:46;103454.09;;;5.11;100.00
67840;BME280;54636;51.684;5.142;2023-02-04T03:23:12;103444.03;;;5.04;100.00
67840;BME280;54636;51.684;5.142;2023-02-04T03:25:37;103458.69;;;5.10;100.00
67840;BME280;54636;51.684;5.142;2023-02-04T03:28:04;103452.91;;;5.08;100.00
67840;BME280;54636;51.684;5.142;2023-02-04T03:30:29;103462.56;;;5.16;100.00
67840;BME280;54636;51.684;5.142;2023-02-04T03:32:55;103442.16;;;5.15;100.00
67840;BME280;54636;51.684;5.142;2023-02-04T03:35:20;103453.34;;;5.21;100.00
67840;BME280;54636;51.684;5.142;2023-02-04T03:37:46;103455.63;;;5.15;100.00
67840;BME280;54636;51.684;5.142;2023-02-04T03:40:12;103466.41;;;5.12;100.00
67840;BME280;54636;51.684;5.142;2023-02-04T03:42:37;103462.88;;;5.01;100.00
67840;BME280;54636;51.684;5.142;2023-02-04T03:45:03;103469.00;;;4.97;100.00
67840;BME280;54636;51.684;5.142;2023-02-04T03:47:29;103472.03;;;4.89;100.00
67840;BME280;54636;51.684;5.142;2023-02-04T03:49:54;103473.16;;;4.84;100.00
67840;BME280;54636;51.684;5.142;2023-02-04T03:52:19;103472.34;;;4.77;100.00
67840;BME280;54636;51.684;5.142;2023-02-04T03:54:45;103471.53;;;4.69;100.00
67840;BME280;54636;51.684;5.142;2023-02-04T03:57:11;103473.41;;;4.65;100.00
67840;BME280;54636;51.684;5.142;2023-02-04T03:59:37;103476.81;;;4.58;100.00
67840;BME280;54636;51.684;5.142;2023-02-04T04:02:03;103479.53;;;4.55;100.00
67840;BME280;54636;51.684;5.142;2023-02-04T04:04:28;103470.25;;;4.49;100.00
67840;BME280;54636;51.684;5.142;2023-02-04T04:06:54;103475.94;;;4.40;100.00
67840;BME280;54636;51.684;5.142;2023-02-04T04:09:19;103485.97;;;4.43;100.00
67840;BME280;54636;51.684;5.142;2023-02-04T04:11:45;103481.72;;;4.42;100.00
67840;BME280;54636;51.684;5.142;2023-02-04T04:14:10;103489.00;;;4.38;100.00
67840;BME280;54636;51.684;5.142;2023-02-04T04:16:35;103482.44;;;4.36;100.00
67840;BME280;54636;51.684;5.142;2023-02-04T04:19:01;103482.78;;;4.30;100.00
67840;BME280;54636;51.684;5.142;2023-02-04T04:21:26;103486.66;;;4.33;100.00
67840;BME280;54636;51.684;5.142;2023-02-04T04:23:51;103491.25;;;4.33;100.00
67840;BME280;54636;51.684;5.142;2023-02-04T04:26:17;103485.47;;;4.30;100.00
67840;BME280;54636;51.684;5.142;2023-02-04T04:28:42;103493.22;;;4.39;100.00
67840;BME280;54636;51.684;5.142;2023-02-04T04:31:08;103492.50;;;4.42;100.00
67840;BME280;54636;51.684;5.142;2023-02-04T04:33:33;103489.81;;;4.46;100.00
67840;BME280;54636;51.684;5.142;2023-02-04T04:35:58;103489.50;;;4.54;100.00
67840;BME280;54636;51.684;5.142;2023-02-04T04:38:24;103480.63;;;4.50;100.00
67840;BME280;54636;51.684;5.142;2023-02-04T04:40:49;103495.69;;;4.62;100.00
67840;BME280;54636;51.684;5.142;2023-02-04T04:43:15;103498.38;;;4.55;100.00
67840;BME280;54636;51.684;5.142;2023-02-04T04:45:40;103507.59;;;4.54;100.00
67840;BME280;54636;51.684;5.142;2023-02-04T04:48:06;103509.06;;;4.48;100.00
67840;BME280;54636;51.684;5.142;2023-02-04T04:50:31;103507.13;;;4.45;100.00
67840;BME280;54636;51.684;5.142;2023-02-04T04:52:56;103505.19;;;4.45;100.00
67840;BME280;54636;51.684;5.142;2023-02-04T04:55:22;103504.88;;;4.50;100.00
67840;BME280;54636;51.684;5.142;2023-02-04T04:57:47;103512.59;;;4.59;100.00
67840;BME280;54636;51.684;5.142;2023-02-04T05:00:17;103519.22;;;4.69;100.00
67840;BME280;54636;51.684;5.142;2023-02-04T05:02:43;103518.88;;;4.77;100.00
67840;BME280;54636;51.684;5.142;2023-02-04T05:05:09;103515.84;;;4.82;100.00
67840;BME280;54636;51.684;5.142;2023-02-04T05:07:35;103511.31;;;4.93;100.00
67840;BME280;54636;51.684;5.142;2023-02-04T05:10:00;103507.91;;;5.00;100.00
67840;BME280;54636;51.684;5.142;2023-02-04T05:12:26;103507.53;;;5.02;100.00
67840;BME280;54636;51.684;5.142;2023-02-04T05:14:51;103516.78;;;5.04;100.00
67840;BME280;54636;51.684;5.142;2023-02-04T05:17:17;103520.25;;;5.05;100.00
67840;BME280;54636;51.684;5.142;2023-02-04T05:19:42;103519.50;;;5.11;100.00
67840;BME280;54636;51.684;5.142;2023-02-04T05:22:07;103526.06;;;5.14;100.00
67840;BME280;54636;51.684;5.142;2023-02-04T05:24:33;103516.78;;;5.08;100.00
67840;BME280;54636;51.684;5.142;2023-02-04T05:26:58;103509.53;;;5.15;100.00
67840;BME280;54636;51.684;5.142;2023-02-04T05:29:23;103511.84;;;5.20;100.00
67840;BME280;54636;51.684;5.142;2023-02-04T05:31:49;103512.22;;;5.22;100.00
67840;BME280;54636;51.684;5.142;2023-02-04T05:34:14;103511.84;;;5.24;100.00
67840;BME280;54636;51.684;5.142;2023-02-04T05:36:40;103531.13;;;5.29;100.00
67840;BME280;54636;51.684;5.142;2023-02-04T05:39:05;103534.22;;;5.32;100.00
67840;BME280;54636;51.684;5.142;2023-02-04T05:41:30;103534.25;;;5.35;100.00
67840;BME280;54636;51.684;5.142;2023-02-04T05:43:56;103531.56;;;5.39;100.00
67840;BME280;54636;51.684;5.142;2023-02-04T05:46:21;103530.44;;;5.43;100.00
67840;BME280;54636;51.684;5.142;2023-02-04T05:48:46;103530.84;;;5.49;100.00
67840;BME280;54636;51.684;5.142;2023-02-04T05:51:12;103538.19;;;5.52;100.00
67840;BME280;54636;51.684;5.142;2023-02-04T05:53:37;103538.97;;;5.56;100.00
67840;BME280;54636;51.684;5.142;2023-02-04T05:56:03;103539.75;;;5.60;100.00
67840;BME280;54636;51.684;5.142;2023-02-04T05:58:28;103530.91;;;5.63;100.00
67840;BME280;54636;51.684;5.142;2023-02-04T06:00:58;103528.59;;;5.61;100.00
67840;BME280;54636;51.684;5.142;2023-02-04T06:03:24;103543.28;;;5.71;100.00
67840;BME280;54636;51.684;5.142;2023-02-04T06:05:49;103539.81;;;5.71;100.00
67840;BME280;54636;51.684;5.142;2023-02-04T06:08:15;103544.44;;;5.74;100.00
67840;BME280;54636;51.684;5.142;2023-02-04T06:10:40;103544.84;;;5.79;100.00
67840;BME280;54636;51.684;5.142;2023-02-04T06:13:06;103542.53;;;5.81;100.00
67840;BME280;54636;51.684;5.142;2023-02-04T06:15:31;103536.75;;;5.79;100.00
67840;BME280;54636;51.684;5.142;2023-02-04T06:17:56;103536.78;;;5.83;100.00
67840;BME280;54636;51.684;5.142;2023-02-04T06:20:22;103541.00;;;5.84;100.00
67840;BME280;54636;51.684;5.142;2023-02-04T06:22:48;103542.91;;;5.87;100.00
67840;BME280;54636;51.684;5.142;2023-02-04T06:25:16;103554.13;;;5.89;100.00
67840;BME280;54636;51.684;5.142;2023-02-04T06:27:41;103563.00;;;5.89;100.00
67840;BME280;54636;51.684;5.142;2023-02-04T06:30:08;103574.91;;;5.88;100.00
67840;BME280;54636;51.684;5.142;2023-02-04T06:32:34;103577.25;;;5.90;100.00
67840;BME280;54636;51.684;5.142;2023-02-04T06:35:00;103576.50;;;5.93;100.00
67840;BME280;54636;51.684;5.142;2023-02-04T06:37:25;103588.06;;;5.93;100.00
67840;BME280;54636;51.684;5.142;2023-02-04T06:39:50;103586.53;;;5.96;100.00
67840;BME280;54636;51.684;5.142;2023-02-04T06:42:18;103583.03;;;5.92;100.00
67840;BME280;54636;51.684;5.142;2023-02-04T06:44:43;103588.84;;;5.98;100.00
67840;BME280;54636;51.684;5.142;2023-02-04T06:47:09;103598.09;;;5.97;100.00
67840;BME280;54636;51.684;5.142;2023-02-04T06:49:34;103590.75;;;5.90;100.00
67840;BME280;54636;51.684;5.142;2023-02-04T06:52:00;103603.47;;;5.93;100.00
67840;BME280;54636;51.684;5.142;2023-02-04T06:54:25;103591.09;;;5.85;100.00
67840;BME280;54636;51.684;5.142;2023-02-04T06:56:50;103583.38;;;5.80;100.00
67840;BME280;54636;51.684;5.142;2023-02-04T06:59:16;103603.84;;;5.91;100.00
67840;BME280;54636;51.684;5.142;2023-02-04T07:01:41;103598.03;;;5.86;100.00
67840;BME280;54636;51.684;5.142;2023-02-04T07:04:06;103612.34;;;5.93;100.00
67840;BME280;54636;51.684;5.142;2023-02-04T07:06:32;103603.88;;;5.95;100.00
67840;BME280;54636;51.684;5.142;2023-02-04T07:08:57;103589.56;;;5.84;100.00
67840;BME280;54636;51.684;5.142;2023-02-04T07:11:22;103602.72;;;5.96;100.00
67840;BME280;54636;51.684;5.142;2023-02-04T07:13:48;103609.28;;;5.99;100.00
67840;BME280;54636;51.684;5.142;2023-02-04T07:16:13;103603.50;;;6.00;100.00
67840;BME280;54636;51.684;5.142;2023-02-04T07:18:39;103613.16;;;6.01;100.00
67840;BME280;54636;51.684;5.142;2023-02-04T07:21:04;103614.69;;;6.02;100.00
67840;BME280;54636;51.684;5.142;2023-02-04T07:23:30;103616.22;;;6.03;100.00
67840;BME280;54636;51.684;5.142;2023-02-04T07:25:55;103630.13;;;6.05;100.00
67840;BME280;54636;51.684;5.142;2023-02-04T07:28:23;103621.25;;;6.01;100.00
67840;BME280;54636;51.684;5.142;2023-02-04T07:30:49;103635.91;;;6.07;100.00
67840;BME280;54636;51.684;5.142;2023-02-04T07:33:16;103635.94;;;6.11;100.00
67840;BME280;54636;51.684;5.142;2023-02-04T07:35:41;103640.94;;;6.12;100.00
67840;BME280;54636;51.684;5.142;2023-02-04T07:38:07;103648.28;;;6.15;100.00
67840;BME280;54636;51.684;5.142;2023-02-04T07:40:33;103642.88;;;6.15;100.00
67840;BME280;54636;51.684;5.142;2023-02-04T07:42:58;103651.00;;;6.19;100.00
67840;BME280;54636;51.684;5.142;2023-02-04T07:45:23;103640.59;;;6.21;100.00
67840;BME280;54636;51.684;5.142;2023-02-04T07:47:49;103640.97;;;6.23;100.00
67840;BME280;54636;51.684;5.142;2023-02-04T07:50:14;103643.69;;;6.26;100.00
67840;BME280;54636;51.684;5.142;2023-02-04T07:52:40;103639.44;;;6.25;100.00
67840;BME280;54636;51.684;5.142;2023-02-04T07:55:06;103642.16;;;6.29;100.00
67840;BME280;54636;51.684;5.142;2023-02-04T07:57:32;103646.41;;;6.30;100.00
67840;BME280;54636;51.684;5.142;2023-02-04T07:59:57;103647.97;;;6.35;100.00
67840;BME280;54636;51.684;5.142;2023-02-04T08:02:23;103653.75;;;6.40;100.00
67840;BME280;54636;51.684;5.142;2023-02-04T08:04:49;103658.41;;;6.47;100.00
67840;BME280;54636;51.684;5.142;2023-02-04T08:07:14;103658.00;;;6.52;100.00
67840;BME280;54636;51.684;5.142;2023-02-04T08:09:40;103660.31;;;6.53;100.00
67840;BME280;54636;51.684;5.142;2023-02-04T08:12:05;103663.81;;;6.57;100.00
67840;BME280;54636;51.684;5.142;2023-02-04T08:14:30;103667.66;;;6.56;100.00
67840;BME280;54636;51.684;5.142;2023-02-04T08:16:56;103678.88;;;6.62;100.00
67840;BME280;54636;51.684;5.142;2023-02-04T08:19:21;103676.94;;;6.66;100.00
67840;BME280;54636;51.684;5.142;2023-02-04T08:21:47;103680.44;;;6.70;100.00
67840;BME280;54636;51.684;5.142;2023-02-04T08:24:14;103685.44;;;6.75;100.00
67840;BME280;54636;51.684;5.142;2023-02-04T08:26:40;103683.53;;;6.79;100.00
67840;BME280;54636;51.684;5.142;2023-02-04T08:29:06;103684.31;;;6.83;100.00
67840;BME280;54636;51.684;5.142;2023-02-04T08:31:32;103688.19;;;6.89;100.00
67840;BME280;54636;51.684;5.142;2023-02-04T08:33:57;103682.78;;;6.93;100.00
67840;BME280;54636;51.684;5.142;2023-02-04T08:36:23;103681.63;;;6.98;100.00
67840;BME280;54636;51.684;5.142;2023-02-04T08:38:48;103675.44;;;6.97;100.00
67840;BME280;54636;51.684;5.142;2023-02-04T08:41:14;103692.06;;;7.06;100.00
67840;BME280;54636;51.684;5.142;2023-02-04T08:43:39;103704.00;;;7.16;100.00
67840;BME280;54636;51.684;5.142;2023-02-04T08:46:05;103700.16;;;7.24;100.00
67840;BME280;54636;51.684;5.142;2023-02-04T08:48:30;103702.84;;;7.27;100.00
67840;BME280;54636;51.684;5.142;2023-02-04T08:50:56;103700.53;;;7.30;100.00
67840;BME280;54636;51.684;5.142;2023-02-04T08:53:21;103702.09;;;7.31;100.00
67840;BME280;54636;51.684;5.142;2023-02-04T08:55:46;103713.66;;;7.38;100.00
67840;BME280;54636;51.684;5.142;2023-02-04T08:58:12;103714.44;;;7.42;100.00
67840;BME280;54636;51.684;5.142;2023-02-04T09:00:37;103707.09;;;7.39;100.00
67840;BME280;54636;51.684;5.142;2023-02-04T09:03:02;103720.22;;;7.48;100.00
67840;BME280;54636;51.684;5.142;2023-02-04T09:05:28;103717.53;;;7.55;100.00
67840;BME280;54636;51.684;5.142;2023-02-04T09:07:53;103713.28;;;7.54;100.00
67840;BME280;54636;51.684;5.142;2023-02-04T09:10:19;103718.66;;;7.65;100.00
67840;BME280;54636;51.684;5.142;2023-02-04T09:12:44;103713.25;;;7.75;100.00
67840;BME280;54636;51.684;5.142;2023-02-04T09:15:10;103714.34;;;7.85;100.00
67840;BME280;54636;51.684;5.142;2023-02-04T09:17:35;103722.44;;;7.96;100.00
67840;BME280;54636;51.684;5.142;2023-02-04T09:20:02;103731.69;;;8.09;100.00
67840;BME280;54636;51.684;5.142;2023-02-04T09:22:28;103729.75;;;8.13;100.00
67840;BME280;54636;51.684;5.142;2023-02-04T09:24:53;103735.53;;;8.22;100.00
67840;BME280;54636;51.684;5.142;2023-02-04T09:27:18;103729.31;;;8.29;100.00
67840;BME280;54636;51.684;5.142;2023-02-04T09:29:44;103744.41;;;8.30;100.00
67840;BME280;54636;51.684;5.142;2023-02-04T09:32:09;103742.06;;;8.28;100.00
67840;BME280;54636;51.684;5.142;2023-02-04T09:34:35;103726.63;;;8.21;100.00
67840;BME280;54636;51.684;5.142;2023-02-04T09:37:00;103739.38;;;8.35;100.00
67840;BME280;54636;51.684;5.142;2023-02-04T09:39:25;103731.25;;;8.35;100.00
67840;BME280;54636;51.684;5.142;2023-02-04T09:41:51;103729.72;;;8.27;100.00
67840;BME280;54636;51.684;5.142;2023-02-04T09:44:21;103745.56;;;8.39;100.00
67840;BME280;54636;51.684;5.142;2023-02-04T09:46:52;103745.56;;;8.36;100.00
67840;BME280;54636;51.684;5.142;2023-02-04T09:49:18;103748.25;;;8.43;100.00
67840;BME280;54636;51.684;5.142;2023-02-04T09:51:45;103741.59;;;8.51;100.00
67840;BME280;54636;51.684;5.142;2023-02-04T09:54:16;103750.81;;;8.68;100.00
67840;BME280;54636;51.684;5.142;2023-02-04T09:56:42;103751.13;;;8.80;100.00
67840;BME280;54636;51.684;5.142;2023-02-04T09:59:16;103749.19;;;8.84;100.00
67840;BME280;54636;51.684;5.142;2023-02-04T10:01:42;103753.00;;;8.94;100.00
67840;BME280;54636;51.684;5.142;2023-02-04T10:04:11;103758.34;;;9.05;100.00
67840;BME280;54636;51.684;5.142;2023-02-04T10:06:37;103768.31;;;9.15;100.00
67840;BME280;54636;51.684;5.142;2023-02-04T10:09:03;103763.56;;;9.30;100.00
67840;BME280;54636;51.684;5.142;2023-02-04T10:11:31;103763.09;;;9.42;100.00
67840;BME280;54636;51.684;5.142;2023-02-04T10:13:58;103759.22;;;9.39;100.00
67840;BME280;54636;51.684;5.142;2023-02-04T10:16:28;103762.41;;;9.31;100.00
67840;BME280;54636;51.684;5.142;2023-02-04T10:18:56;103758.94;;;9.27;100.00
67840;BME280;54636;51.684;5.142;2023-02-04T10:21:28;103757.78;;;9.24;100.00
67840;BME280;54636;51.684;5.142;2023-02-04T10:23:55;103759.28;;;9.32;100.00
67840;BME280;54636;51.684;5.142;2023-02-04T10:26:23;103735.72;;;9.22;100.00
67840;BME280;54636;51.684;5.142;2023-02-04T10:28:59;103764.53;;;9.53;100.00
67840;BME280;54636;51.684;5.142;2023-02-04T10:31:38;103758.66;;;9.62;100.00
67840;BME280;54636;51.684;5.142;2023-02-04T10:34:34;103758.97;;;9.71;100.00
67840;BME280;54636;51.684;5.142;2023-02-04T10:37:18;103770.44;;;9.86;100.00
67840;BME280;54636;51.684;5.142;2023-02-04T10:39:44;103762.66;;;9.88;100.00
67840;BME280;54636;51.684;5.142;2023-02-04T10:42:24;103778.34;;;10.07;100.00
67840;BME280;54636;51.684;5.142;2023-02-04T10:44:51;103770.97;;;10.08;100.00
67840;BME280;54636;51.684;5.142;2023-02-04T10:47:21;103764.03;;;10.03;100.00
67840;BME280;54636;51.684;5.142;2023-02-04T10:50:04;103778.44;;;10.00;100.00
67840;BME280;54636;51.684;5.142;2023-02-04T10:52:37;103771.13;;;9.94;100.00
67840;BME280;54636;51.684;5.142;2023-02-04T10:55:03;103775.41;;;9.91;100.00
67840;BME280;54636;51.684;5.142;2023-02-04T10:57:31;103778.56;;;9.86;100.00
67840;BME280;54636;51.684;5.142;2023-02-04T11:00:00;103780.44;;;9.93;100.00
67840;BME280;54636;51.684;5.142;2023-02-04T11:02:35;103783.94;;;9.93;100.00
67840;BME280;54636;51.684;5.142;2023-02-04T11:05:02;103779.13;;;10.08;100.00
67840;BME280;54636;51.684;5.142;2023-02-04T11:07:28;103778.97;;;10.26;100.00
67840;BME280;54636;51.684;5.142;2023-02-04T11:09:55;103776.09;;;10.40;100.00
67840;BME280;54636;51.684;5.142;2023-02-04T11:12:34;103777.09;;;10.49;100.00
67840;BME280;54636;51.684;5.142;2023-02-04T11:15:01;103766.28;;;10.46;99.12
67840;BME280;54636;51.684;5.142;2023-02-04T11:17:33;103765.97;;;10.40;98.46
67840;BME280;54636;51.684;5.142;2023-02-04T11:19:59;103773.28;;;10.43;97.59
67840;BME280;54636;51.684;5.142;2023-02-04T11:22:42;103778.53;;;10.31;95.03
67840;BME280;54636;51.684;5.142;2023-02-04T11:25:33;103775.94;;;10.16;98.03
67840;BME280;54636;51.684;5.142;2023-02-04T11:27:59;103779.81;;;10.15;98.46
67840;BME280;54636;51.684;5.142;2023-02-04T11:30:30;103770.16;;;10.11;97.57
67840;BME280;54636;51.684;5.142;2023-02-04T11:33:05;103771.72;;;10.12;97.55
67840;BME280;54636;51.684;5.142;2023-02-04T11:35:31;103774.03;;;10.13;97.98
67840;BME280;54636;51.684;5.142;2023-02-04T11:37:57;103773.22;;;10.20;97.65
67840;BME280;54636;51.684;5.142;2023-02-04T11:43:12;103765.88;;;10.47;100.00
67840;BME280;54636;51.684;5.142;2023-02-04T11:45:39;103771.31;;;10.47;96.26
67840;BME280;54636;51.684;5.142;2023-02-04T11:48:16;103768.13;;;10.52;98.42
67840;BME280;54636;51.684;5.142;2023-02-04T11:50:54;103762.97;;;10.62;97.83
67840;BME280;54636;51.684;5.142;2023-02-04T11:53:23;103767.50;;;10.72;97.57
67840;BME280;54636;51.684;5.142;2023-02-04T11:55:49;103762.28;;;10.84;95.41
67840;BME280;54636;51.684;5.142;2023-02-04T11:58:17;103761.91;;;10.82;93.72
67840;BME280;54636;51.684;5.142;2023-02-04T12:00:42;103761.59;;;10.77;92.30
67840;BME280;54636;51.684;5.142;2023-02-04T12:05:45;103747.75;;;10.68;93.70
67840;BME280;54636;51.684;5.142;2023-02-04T12:13:23;103766.22;;;10.80;92.80
67840;BME280;54636;51.684;5.142;2023-02-04T12:16:03;103762.38;;;10.77;94.37
67840;BME280;54636;51.684;5.142;2023-02-04T12:18:30;103760.13;;;10.72;93.24
67840;BME280;54636;51.684;5.142;2023-02-04T12:20:57;103757.13;;;10.63;92.56
67840;BME280;54636;51.684;5.142;2023-02-04T12:23:24;103758.41;;;10.55;92.30
67840;BME280;54636;51.684;5.142;2023-02-04T12:25:50;103752.59;;;10.53;92.97
67840;BME280;54636;51.684;5.142;2023-02-04T12:28:15;103751.47;;;10.50;92.64
67840;BME280;54636;51.684;5.142;2023-02-04T12:30:41;103756.84;;;10.54;92.22
67840;BME280;54636;51.684;5.142;2023-02-04T12:33:06;103759.16;;;10.55;92.04
67840;BME280;54636;51.684;5.142;2023-02-04T12:35:32;103755.22;;;10.60;90.13
67840;BME280;54636;51.684;5.142;2023-02-04T12:37:58;103757.94;;;10.60;91.66
67840;BME280;54636;51.684;5.142;2023-02-04T12:40:24;103760.66;;;10.60;91.84
67840;BME280;54636;51.684;5.142;2023-02-04T12:42:49;103757.09;;;10.67;93.19
67840;BME280;54636;51.684;5.142;2023-02-04T12:45:15;103767.09;;;10.73;90.52
67840;BME280;54636;51.684;5.142;2023-02-04T12:47:42;103765.81;;;10.81;91.50
67840;BME280;54636;51.684;5.142;2023-02-04T12:50:08;103767.19;;;10.93;91.27
67840;BME280;54636;51.684;5.142;2023-02-04T12:52:34;103767.63;;;10.92;88.21
67840;BME280;54636;51.684;5.142;2023-02-04T12:55:02;103771.34;;;10.74;88.18
67840;BME280;54636;51.684;5.142;2023-02-04T12:57:32;103766.72;;;10.71;90.02